sensor_id;sensor_type;location;lat;lon;timestamp;pressure;altitude;pressure_sealevel;temperature
7882;BMP180;3986;41.884;23.466;2024-01-07T00:01:59;90546.00;;;9.00
7882;BMP180;3986;41.884;23.466;2024-01-07T00:04:27;90521.00;;;9.00
7882;BMP180;3986;41.884;23.466;2024-01-07T00:06:54;90508.00;;;9.10
7882;BMP180;3986;41.884;23.466;2024-01-07T00:09:21;90502.00;;;9.00
7882;BMP180;3986;41.884;23.466;2024-01-07T00:11:48;90509.00;;;9.00
7882;BMP180;3986;41.884;23.466;2024-01-07T00:14:15;90485.00;;;9.00
7882;BMP180;3986;41.884;23.466;2024-01-07T00:16:42;90483.00;;;9.00
7882;BMP180;3986;41.884;23.466;2024-01-07T00:19:09;90489.00;;;8.90
7882;BMP180;3986;41.884;23.466;2024-01-07T00:21:37;90482.00;;;8.80
7882;BMP180;3986;41.884;23.466;2024-01-07T00:24:04;90476.00;;;8.90
7882;BMP180;3986;41.884;23.466;2024-01-07T00:26:31;90474.00;;;8.90
7882;BMP180;3986;41.884;23.466;2024-01-07T00:28:57;90467.00;;;8.90
7882;BMP180;3986;41.884;23.466;2024-01-07T00:31:24;90458.00;;;8.90
7882;BMP180;3986;41.884;23.466;2024-01-07T00:33:51;90460.00;;;8.80
7882;BMP180;3986;41.884;23.466;2024-01-07T00:36:18;90442.00;;;8.90
7882;BMP180;3986;41.884;23.466;2024-01-07T00:38:46;90428.00;;;8.90
7882;BMP180;3986;41.884;23.466;2024-01-07T00:41:12;90427.00;;;8.90
7882;BMP180;3986;41.884;23.466;2024-01-07T00:43:40;90417.00;;;8.30
7882;BMP180;3986;41.884;23.466;2024-01-07T00:46:07;90408.00;;;8.80
7882;BMP180;3986;41.884;23.466;2024-01-07T00:48:34;90390.00;;;8.70
7882;BMP180;3986;41.884;23.466;2024-01-07T00:51:01;90389.00;;;8.70
7882;BMP180;3986;41.884;23.466;2024-01-07T00:53:27;90368.00;;;8.70
7882;BMP180;3986;41.884;23.466;2024-01-07T00:55:55;90379.00;;;8.70
7882;BMP180;3986;41.884;23.466;2024-01-07T00:58:22;90376.00;;;8.70
7882;BMP180;3986;41.884;23.466;2024-01-07T01:00:50;90370.00;;;8.70
7882;BMP180;3986;41.884;23.466;2024-01-07T01:03:19;90370.00;;;8.70
7882;BMP180;3986;41.884;23.466;2024-01-07T01:05:46;90349.00;;;8.80
7882;BMP180;3986;41.884;23.466;2024-01-07T01:08:13;90336.00;;;8.80
7882;BMP180;3986;41.884;23.466;2024-01-07T01:10:39;90327.00;;;8.80
7882;BMP180;3986;41.884;23.466;2024-01-07T01:13:08;90326.00;;;8.80
7882;BMP180;3986;41.884;23.466;2024-01-07T01:15:34;90298.00;;;8.50
7882;BMP180;3986;41.884;23.466;2024-01-07T01:18:01;90285.00;;;8.60
7882;BMP180;3986;41.884;23.466;2024-01-07T01:20:28;90281.00;;;8.60
7882;BMP180;3986;41.884;23.466;2024-01-07T01:22:55;90286.00;;;8.70
7882;BMP180;3986;41.884;23.466;2024-01-07T01:25:22;90295.00;;;8.70
7882;BMP180;3986;41.884;23.466;2024-01-07T01:27:48;90297.00;;;8.50
7882;BMP180;3986;41.884;23.466;2024-01-07T01:30:16;90290.00;;;8.50
7882;BMP180;3986;41.884;23.466;2024-01-07T01:32:43;90294.00;;;8.50
7882;BMP180;3986;41.884;23.466;2024-01-07T01:35:11;90303.00;;;8.60
7882;BMP180;3986;41.884;23.466;2024-01-07T01:37:37;90312.00;;;8.40
7882;BMP180;3986;41.884;23.466;2024-01-07T01:40:05;90309.00;;;8.50
7882;BMP180;3986;41.884;23.466;2024-01-07T01:42:31;90310.00;;;8.50
7882;BMP180;3986;41.884;23.466;2024-01-07T01:44:58;90286.00;;;8.40
7882;BMP180;3986;41.884;23.466;2024-01-07T01:47:28;90286.00;;;8.30
7882;BMP180;3986;41.884;23.466;2024-01-07T01:49:56;90294.00;;;8.40
7882;BMP180;3986;41.884;23.466;2024-01-07T01:52:23;90294.00;;;8.50
7882;BMP180;3986;41.884;23.466;2024-01-07T01:54:51;90296.00;;;8.40
7882;BMP180;3986;41.884;23.466;2024-01-07T01:57:20;90293.00;;;8.40
7882;BMP180;3986;41.884;23.466;2024-01-07T01:59:49;90297.00;;;8.50
7882;BMP180;3986;41.884;23.466;2024-01-07T02:02:15;90280.00;;;8.30
7882;BMP180;3986;41.884;23.466;2024-01-07T02:04:44;90286.00;;;8.30
7882;BMP180;3986;41.884;23.466;2024-01-07T02:07:10;90277.00;;;8.40
7882;BMP180;3986;41.884;23.466;2024-01-07T02:09:37;90274.00;;;8.40
7882;BMP180;3986;41.884;23.466;2024-01-07T02:12:05;90279.00;;;8.30
7882;BMP180;3986;41.884;23.466;2024-01-07T02:14:37;90282.00;;;8.20
7882;BMP180;3986;41.884;23.466;2024-01-07T02:17:04;90290.00;;;8.00
7882;BMP180;3986;41.884;23.466;2024-01-07T02:19:31;90294.00;;;8.00
7882;BMP180;3986;41.884;23.466;2024-01-07T02:21:59;90313.00;;;7.90
7882;BMP180;3986;41.884;23.466;2024-01-07T02:24:27;90328.00;;;7.90
7882;BMP180;3986;41.884;23.466;2024-01-07T02:26:54;90308.00;;;8.00
7882;BMP180;3986;41.884;23.466;2024-01-07T02:29:20;90299.00;;;8.00
7882;BMP180;3986;41.884;23.466;2024-01-07T02:31:47;90300.00;;;7.60
7882;BMP180;3986;41.884;23.466;2024-01-07T02:34:14;90293.00;;;7.90
7882;BMP180;3986;41.884;23.466;2024-01-07T02:36:41;90288.00;;;8.00
7882;BMP180;3986;41.884;23.466;2024-01-07T02:39:07;90288.00;;;7.90
7882;BMP180;3986;41.884;23.466;2024-01-07T02:41:35;90282.00;;;7.80
7882;BMP180;3986;41.884;23.466;2024-01-07T02:44:02;90269.00;;;7.60
7882;BMP180;3986;41.884;23.466;2024-01-07T02:46:30;90273.00;;;7.40
7882;BMP180;3986;41.884;23.466;2024-01-07T02:48:57;90281.00;;;7.40
7882;BMP180;3986;41.884;23.466;2024-01-07T02:51:24;90288.00;;;7.30
7882;BMP180;3986;41.884;23.466;2024-01-07T02:53:50;90300.00;;;7.20
7882;BMP180;3986;41.884;23.466;2024-01-07T02:56:17;90297.00;;;7.30
7882;BMP180;3986;41.884;23.466;2024-01-07T02:58:45;90318.00;;;7.30
7882;BMP180;3986;41.884;23.466;2024-01-07T03:01:12;90312.00;;;7.30
7882;BMP180;3986;41.884;23.466;2024-01-07T03:03:39;90295.00;;;7.20
7882;BMP180;3986;41.884;23.466;2024-01-07T03:06:05;90285.00;;;7.20
7882;BMP180;3986;41.884;23.466;2024-01-07T03:08:32;90289.00;;;7.20
7882;BMP180;3986;41.884;23.466;2024-01-07T03:11:04;90275.00;;;7.20
7882;BMP180;3986;41.884;23.466;2024-01-07T03:13:31;90285.00;;;7.10
7882;BMP180;3986;41.884;23.466;2024-01-07T03:15:59;90259.00;;;7.10
7882;BMP180;3986;41.884;23.466;2024-01-07T03:18:27;90271.00;;;7.20
7882;BMP180;3986;41.884;23.466;2024-01-07T03:20:53;90251.00;;;7.10
7882;BMP180;3986;41.884;23.466;2024-01-07T03:23:20;90233.00;;;7.10
7882;BMP180;3986;41.884;23.466;2024-01-07T03:25:47;90219.00;;;7.10
7882;BMP180;3986;41.884;23.466;2024-01-07T03:28:14;90227.00;;;7.20
7882;BMP180;3986;41.884;23.466;2024-01-07T03:30:41;90238.00;;;7.20
7882;BMP180;3986;41.884;23.466;2024-01-07T03:33:09;90255.00;;;7.10
7882;BMP180;3986;41.884;23.466;2024-01-07T03:35:36;90260.00;;;7.10
7882;BMP180;3986;41.884;23.466;2024-01-07T03:38:03;90266.00;;;7.20
7882;BMP180;3986;41.884;23.466;2024-01-07T03:40:30;90264.00;;;7.30
7882;BMP180;3986;41.884;23.466;2024-01-07T03:42:56;90259.00;;;7.00
7882;BMP180;3986;41.884;23.466;2024-01-07T03:45:23;90272.00;;;6.90
7882;BMP180;3986;41.884;23.466;2024-01-07T03:47:50;90274.00;;;7.10
7882;BMP180;3986;41.884;23.466;2024-01-07T03:50:18;90266.00;;;7.10
7882;BMP180;3986;41.884;23.466;2024-01-07T03:52:45;90253.00;;;7.30
7882;BMP180;3986;41.884;23.466;2024-01-07T03:55:12;90246.00;;;7.10
7882;BMP180;3986;41.884;23.466;2024-01-07T03:57:39;90244.00;;;7.00
7882;BMP180;3986;41.884;23.466;2024-01-07T04:00:07;90242.00;;;6.90
7882;BMP180;3986;41.884;23.466;2024-01-07T04:02:35;90263.00;;;6.90
7882;BMP180;3986;41.884;23.466;2024-01-07T04:05:01;90271.00;;;7.00
7882;BMP180;3986;41.884;23.466;2024-01-07T04:07:30;90265.00;;;7.00
7882;BMP180;3986;41.884;23.466;2024-01-07T04:09:56;90259.00;;;6.90
7882;BMP180;3986;41.884;23.466;2024-01-07T04:12:23;90256.00;;;6.90
7882;BMP180;3986;41.884;23.466;2024-01-07T04:14:50;90247.00;;;7.10
7882;BMP180;3986;41.884;23.466;2024-01-07T04:17:17;90224.00;;;7.10
7882;BMP180;3986;41.884;23.466;2024-01-07T04:19:43;90216.00;;;7.00
7882;BMP180;3986;41.884;23.466;2024-01-07T04:22:10;90226.00;;;6.80
7882;BMP180;3986;41.884;23.466;2024-01-07T04:24:40;90222.00;;;6.50
7882;BMP180;3986;41.884;23.466;2024-01-07T04:27:07;90225.00;;;6.50
7882;BMP180;3986;41.884;23.466;2024-01-07T04:29:33;90221.00;;;6.50
7882;BMP180;3986;41.884;23.466;2024-01-07T04:32:00;90232.00;;;6.70
7882;BMP180;3986;41.884;23.466;2024-01-07T04:34:27;90235.00;;;6.60
7882;BMP180;3986;41.884;23.466;2024-01-07T04:36:54;90235.00;;;6.80
7882;BMP180;3986;41.884;23.466;2024-01-07T04:39:20;90237.00;;;6.60
7882;BMP180;3986;41.884;23.466;2024-01-07T04:41:48;90256.00;;;6.70
7882;BMP180;3986;41.884;23.466;2024-01-07T04:44:15;90275.00;;;6.70
7882;BMP180;3986;41.884;23.466;2024-01-07T04:46:42;90275.00;;;6.80
7882;BMP180;3986;41.884;23.466;2024-01-07T04:49:09;90268.00;;;6.90
7882;BMP180;3986;41.884;23.466;2024-01-07T04:51:36;90255.00;;;6.80
7882;BMP180;3986;41.884;23.466;2024-01-07T04:54:03;90260.00;;;6.80
7882;BMP180;3986;41.884;23.466;2024-01-07T04:56:31;90267.00;;;6.50
7882;BMP180;3986;41.884;23.466;2024-01-07T04:58:59;90280.00;;;6.30
7882;BMP180;3986;41.884;23.466;2024-01-07T05:01:26;90276.00;;;6.30
7882;BMP180;3986;41.884;23.466;2024-01-07T05:03:53;90256.00;;;6.50
7882;BMP180;3986;41.884;23.466;2024-01-07T05:06:19;90260.00;;;6.60
7882;BMP180;3986;41.884;23.466;2024-01-07T05:08:46;90266.00;;;6.50
7882;BMP180;3986;41.884;23.466;2024-01-07T05:11:13;90263.00;;;6.50
7882;BMP180;3986;41.884;23.466;2024-01-07T05:13:40;90258.00;;;6.40
7882;BMP180;3986;41.884;23.466;2024-01-07T05:16:09;90266.00;;;6.40
7882;BMP180;3986;41.884;23.466;2024-01-07T05:18:35;90265.00;;;6.40
7882;BMP180;3986;41.884;23.466;2024-01-07T05:21:05;90266.00;;;6.50
7882;BMP180;3986;41.884;23.466;2024-01-07T05:23:32;90266.00;;;6.50
7882;BMP180;3986;41.884;23.466;2024-01-07T05:25:59;90277.00;;;6.10
7882;BMP180;3986;41.884;23.466;2024-01-07T05:28:26;90286.00;;;6.50
7882;BMP180;3986;41.884;23.466;2024-01-07T05:30:53;90281.00;;;6.50
7882;BMP180;3986;41.884;23.466;2024-01-07T05:33:21;90289.00;;;6.30
7882;BMP180;3986;41.884;23.466;2024-01-07T05:35:48;90293.00;;;6.40
7882;BMP180;3986;41.884;23.466;2024-01-07T05:38:14;90288.00;;;6.60
7882;BMP180;3986;41.884;23.466;2024-01-07T05:40:41;90274.00;;;6.70
7882;BMP180;3986;41.884;23.466;2024-01-07T05:43:08;90270.00;;;6.40
7882;BMP180;3986;41.884;23.466;2024-01-07T05:45:35;90289.00;;;6.40
7882;BMP180;3986;41.884;23.466;2024-01-07T05:48:01;90291.00;;;6.30
7882;BMP180;3986;41.884;23.466;2024-01-07T05:50:30;90293.00;;;6.50
7882;BMP180;3986;41.884;23.466;2024-01-07T05:52:56;90301.00;;;6.60
7882;BMP180;3986;41.884;23.466;2024-01-07T05:55:23;90304.00;;;6.70
7882;BMP180;3986;41.884;23.466;2024-01-07T05:57:50;90304.00;;;6.70
7882;BMP180;3986;41.884;23.466;2024-01-07T06:00:17;90296.00;;;6.60
7882;BMP180;3986;41.884;23.466;2024-01-07T06:02:44;90291.00;;;6.40
7882;BMP180;3986;41.884;23.466;2024-01-07T06:05:10;90291.00;;;6.50
7882;BMP180;3986;41.884;23.466;2024-01-07T06:07:39;90326.00;;;6.20
7882;BMP180;3986;41.884;23.466;2024-01-07T06:10:06;90327.00;;;6.30
7882;BMP180;3986;41.884;23.466;2024-01-07T06:12:33;90317.00;;;6.50
7882;BMP180;3986;41.884;23.466;2024-01-07T06:15:00;90338.00;;;6.70
7882;BMP180;3986;41.884;23.466;2024-01-07T06:17:26;90358.00;;;6.00
7882;BMP180;3986;41.884;23.466;2024-01-07T06:19:53;90357.00;;;6.20
7882;BMP180;3986;41.884;23.466;2024-01-07T06:22:20;90342.00;;;6.30
7882;BMP180;3986;41.884;23.466;2024-01-07T06:24:48;90351.00;;;6.40
7882;BMP180;3986;41.884;23.466;2024-01-07T06:27:15;90348.00;;;6.40
7882;BMP180;3986;41.884;23.466;2024-01-07T06:29:42;90332.00;;;6.50
7882;BMP180;3986;41.884;23.466;2024-01-07T06:32:08;90349.00;;;6.20
7882;BMP180;3986;41.884;23.466;2024-01-07T06:34:35;90350.00;;;6.50
7882;BMP180;3986;41.884;23.466;2024-01-07T06:37:02;90351.00;;;6.40
7882;BMP180;3986;41.884;23.466;2024-01-07T06:39:30;90348.00;;;6.70
7882;BMP180;3986;41.884;23.466;2024-01-07T06:41:59;90356.00;;;6.20
7882;BMP180;3986;41.884;23.466;2024-01-07T06:44:25;90362.00;;;6.00
7882;BMP180;3986;41.884;23.466;2024-01-07T06:46:52;90369.00;;;6.40
7882;BMP180;3986;41.884;23.466;2024-01-07T06:49:19;90371.00;;;6.60
7882;BMP180;3986;41.884;23.466;2024-01-07T06:51:46;90292.00;;;6.50
7882;BMP180;3986;41.884;23.466;2024-01-07T06:54:12;90379.00;;;6.60
7882;BMP180;3986;41.884;23.466;2024-01-07T06:56:39;90363.00;;;6.30
7882;BMP180;3986;41.884;23.466;2024-01-07T06:59:07;90367.00;;;6.30
7882;BMP180;3986;41.884;23.466;2024-01-07T07:01:35;90372.00;;;6.30
7882;BMP180;3986;41.884;23.466;2024-01-07T07:04:02;90371.00;;;6.70
7882;BMP180;3986;41.884;23.466;2024-01-07T07:06:29;90368.00;;;6.60
7882;BMP180;3986;41.884;23.466;2024-01-07T07:08:56;90364.00;;;6.20
7882;BMP180;3986;41.884;23.466;2024-01-07T07:11:23;90355.00;;;6.50
7882;BMP180;3986;41.884;23.466;2024-01-07T07:13:50;90346.00;;;6.60
7882;BMP180;3986;41.884;23.466;2024-01-07T07:16:18;90370.00;;;6.20
7882;BMP180;3986;41.884;23.466;2024-01-07T07:18:45;90365.00;;;6.20
7882;BMP180;3986;41.884;23.466;2024-01-07T07:21:11;90348.00;;;6.40
7882;BMP180;3986;41.884;23.466;2024-01-07T07:23:38;90356.00;;;6.60
7882;BMP180;3986;41.884;23.466;2024-01-07T07:26:05;90359.00;;;6.40
7882;BMP180;3986;41.884;23.466;2024-01-07T07:28:32;90360.00;;;6.60
7882;BMP180;3986;41.884;23.466;2024-01-07T07:30:59;90358.00;;;6.70
7882;BMP180;3986;41.884;23.466;2024-01-07T07:33:27;90361.00;;;6.80
7882;BMP180;3986;41.884;23.466;2024-01-07T07:35:54;90367.00;;;7.00
7882;BMP180;3986;41.884;23.466;2024-01-07T07:38:20;90367.00;;;7.10
7882;BMP180;3986;41.884;23.466;2024-01-07T07:40:48;90364.00;;;6.90
7882;BMP180;3986;41.884;23.466;2024-01-07T07:43:18;90366.00;;;7.10
7882;BMP180;3986;41.884;23.466;2024-01-07T07:45:45;90369.00;;;7.40
7882;BMP180;3986;41.884;23.466;2024-01-07T07:48:12;90359.00;;;7.30
7882;BMP180;3986;41.884;23.466;2024-01-07T07:50:40;90367.00;;;7.40
7882;BMP180;3986;41.884;23.466;2024-01-07T07:53:07;90371.00;;;7.00
7882;BMP180;3986;41.884;23.466;2024-01-07T07:55:34;90377.00;;;7.10
7882;BMP180;3986;41.884;23.466;2024-01-07T07:58:00;90375.00;;;7.10
7882;BMP180;3986;41.884;23.466;2024-01-07T08:00:28;90379.00;;;7.10
7882;BMP180;3986;41.884;23.466;2024-01-07T08:02:54;90366.00;;;7.20
7882;BMP180;3986;41.884;23.466;2024-01-07T08:05:21;90364.00;;;7.20
7882;BMP180;3986;41.884;23.466;2024-01-07T08:07:49;90373.00;;;7.00
7882;BMP180;3986;41.884;23.466;2024-01-07T08:10:16;90372.00;;;7.10
7882;BMP180;3986;41.884;23.466;2024-01-07T08:12:43;90361.00;;;7.10
7882;BMP180;3986;41.884;23.466;2024-01-07T08:15:10;90351.00;;;7.00
7882;BMP180;3986;41.884;23.466;2024-01-07T08:17:37;90354.00;;;7.20
7882;BMP180;3986;41.884;23.466;2024-01-07T08:20:05;90359.00;;;7.30
7882;BMP180;3986;41.884;23.466;2024-01-07T08:22:36;90369.00;;;7.30
7882;BMP180;3986;41.884;23.466;2024-01-07T08:25:05;90361.00;;;7.40
7882;BMP180;3986;41.884;23.466;2024-01-07T08:27:32;90361.00;;;7.50
7882;BMP180;3986;41.884;23.466;2024-01-07T08:30:00;90351.00;;;7.50
7882;BMP180;3986;41.884;23.466;2024-01-07T08:32:27;90350.00;;;7.40
7882;BMP180;3986;41.884;23.466;2024-01-07T08:34:54;90345.00;;;7.30
7882;BMP180;3986;41.884;23.466;2024-01-07T08:37:21;90347.00;;;7.50
7882;BMP180;3986;41.884;23.466;2024-01-07T08:39:48;90332.00;;;7.20
7882;BMP180;3986;41.884;23.466;2024-01-07T08:42:16;90335.00;;;7.30
7882;BMP180;3986;41.884;23.466;2024-01-07T08:44:43;90343.00;;;7.50
7882;BMP180;3986;41.884;23.466;2024-01-07T08:47:09;90342.00;;;7.60
7882;BMP180;3986;41.884;23.466;2024-01-07T08:49:36;90341.00;;;7.50
7882;BMP180;3986;41.884;23.466;2024-01-07T08:52:04;90335.00;;;7.60
7882;BMP180;3986;41.884;23.466;2024-01-07T08:54:31;90344.00;;;7.60
7882;BMP180;3986;41.884;23.466;2024-01-07T08:56:58;90351.00;;;7.60
7882;BMP180;3986;41.884;23.466;2024-01-07T08:59:26;90347.00;;;7.70
7882;BMP180;3986;41.884;23.466;2024-01-07T09:01:53;90353.00;;;7.60
7882;BMP180;3986;41.884;23.466;2024-01-07T09:04:20;90347.00;;;7.60
7882;BMP180;3986;41.884;23.466;2024-01-07T09:06:47;90335.00;;;7.80
7882;BMP180;3986;41.884;23.466;2024-01-07T09:09:14;90336.00;;;8.00
7882;BMP180;3986;41.884;23.466;2024-01-07T09:11:41;90321.00;;;8.10
7882;BMP180;3986;41.884;23.466;2024-01-07T09:14:07;90320.00;;;8.20
7882;BMP180;3986;41.884;23.466;2024-01-07T09:16:35;90323.00;;;8.20
7882;BMP180;3986;41.884;23.466;2024-01-07T09:19:02;90322.00;;;8.30
7882;BMP180;3986;41.884;23.466;2024-01-07T09:21:29;90309.00;;;8.60
7882;BMP180;3986;41.884;23.466;2024-01-07T09:23:56;90316.00;;;8.60
7882;BMP180;3986;41.884;23.466;2024-01-07T09:26:22;90309.00;;;9.20
7882;BMP180;3986;41.884;23.466;2024-01-07T09:28:49;90306.00;;;9.80
7882;BMP180;3986;41.884;23.466;2024-01-07T09:31:17;90318.00;;;9.90
7882;BMP180;3986;41.884;23.466;2024-01-07T09:33:45;90306.00;;;11.30
7882;BMP180;3986;41.884;23.466;2024-01-07T09:36:12;90303.00;;;12.40
7882;BMP180;3986;41.884;23.466;2024-01-07T09:38:40;90305.00;;;13.20
7882;BMP180;3986;41.884;23.466;2024-01-07T09:41:07;90300.00;;;12.60
7882;BMP180;3986;41.884;23.466;2024-01-07T09:43:34;90282.00;;;12.50
7882;BMP180;3986;41.884;23.466;2024-01-07T09:46:01;90280.00;;;14.30
7882;BMP180;3986;41.884;23.466;2024-01-07T09:48:29;90286.00;;;13.70
7882;BMP180;3986;41.884;23.466;2024-01-07T09:51:00;90289.00;;;14.70
7882;BMP180;3986;41.884;23.466;2024-01-07T09:53:31;90280.00;;;12.80
7882;BMP180;3986;41.884;23.466;2024-01-07T09:56:07;90286.00;;;11.40
7882;BMP180;3986;41.884;23.466;2024-01-07T09:58:38;90284.00;;;11.20
7882;BMP180;3986;41.884;23.466;2024-01-07T10:01:05;90171.00;;;10.90
7882;BMP180;3986;41.884;23.466;2024-01-07T10:03:33;90266.00;;;10.40
7882;BMP180;3986;41.884;23.466;2024-01-07T10:06:01;90263.00;;;10.50
7882;BMP180;3986;41.884;23.466;2024-01-07T10:08:28;90254.00;;;10.20
7882;BMP180;3986;41.884;23.466;2024-01-07T10:10:54;90259.00;;;10.30
7882;BMP180;3986;41.884;23.466;2024-01-07T10:13:22;90259.00;;;11.60
7882;BMP180;3986;41.884;23.466;2024-01-07T10:15:49;90260.00;;;10.90
7882;BMP180;3986;41.884;23.466;2024-01-07T10:18:16;90251.00;;;12.90
7882;BMP180;3986;41.884;23.466;2024-01-07T10:20:42;90246.00;;;12.00
7882;BMP180;3986;41.884;23.466;2024-01-07T10:23:11;90240.00;;;12.80
7882;BMP180;3986;41.884;23.466;2024-01-07T10:25:39;90244.00;;;11.80
7882;BMP180;3986;41.884;23.466;2024-01-07T10:28:06;90239.00;;;11.50
7882;BMP180;3986;41.884;23.466;2024-01-07T10:30:32;90239.00;;;11.60
7882;BMP180;3986;41.884;23.466;2024-01-07T10:32:59;90231.00;;;12.30
7882;BMP180;3986;41.884;23.466;2024-01-07T10:35:29;90218.00;;;12.00
7882;BMP180;3986;41.884;23.466;2024-01-07T10:37:59;90215.00;;;11.50
7882;BMP180;3986;41.884;23.466;2024-01-07T10:40:29;90212.00;;;12.20
7882;BMP180;3986;41.884;23.466;2024-01-07T10:42:57;90195.00;;;11.00
7882;BMP180;3986;41.884;23.466;2024-01-07T10:45:24;90202.00;;;10.40
7882;BMP180;3986;41.884;23.466;2024-01-07T10:47:54;90197.00;;;9.80
7882;BMP180;3986;41.884;23.466;2024-01-07T10:50:21;90208.00;;;9.90
7882;BMP180;3986;41.884;23.466;2024-01-07T10:52:49;90200.00;;;9.80
7882;BMP180;3986;41.884;23.466;2024-01-07T10:55:18;90195.00;;;9.90
7882;BMP180;3986;41.884;23.466;2024-01-07T10:57:48;90202.00;;;9.60
7882;BMP180;3986;41.884;23.466;2024-01-07T11:00:16;90189.00;;;9.60
7882;BMP180;3986;41.884;23.466;2024-01-07T11:03:02;90208.00;;;9.20
7882;BMP180;3986;41.884;23.466;2024-01-07T11:05:36;90197.00;;;9.80
7882;BMP180;3986;41.884;23.466;2024-01-07T11:08:07;90214.00;;;9.40
7882;BMP180;3986;41.884;23.466;2024-01-07T11:10:43;90192.00;;;9.60
7882;BMP180;3986;41.884;23.466;2024-01-07T11:13:31;90192.00;;;9.70
7882;BMP180;3986;41.884;23.466;2024-01-07T11:15:58;90195.00;;;9.70
7882;BMP180;3986;41.884;23.466;2024-01-07T11:18:26;90193.00;;;9.70
7882;BMP180;3986;41.884;23.466;2024-01-07T11:20:58;90204.00;;;9.50
7882;BMP180;3986;41.884;23.466;2024-01-07T11:23:30;90180.00;;;9.20
7882;BMP180;3986;41.884;23.466;2024-01-07T11:25:58;90192.00;;;9.20
7882;BMP180;3986;41.884;23.466;2024-01-07T11:28:46;90183.00;;;9.10
7882;BMP180;3986;41.884;23.466;2024-01-07T11:31:14;90182.00;;;9.20
7882;BMP180;3986;41.884;23.466;2024-01-07T11:33:42;90197.00;;;9.10
7882;BMP180;3986;41.884;23.466;2024-01-07T11:36:11;90181.00;;;9.60
7882;BMP180;3986;41.884;23.466;2024-01-07T11:38:38;90183.00;;;9.50
7882;BMP180;3986;41.884;23.466;2024-01-07T11:41:09;90184.00;;;9.30
7882;BMP180;3986;41.884;23.466;2024-01-07T11:43:36;90189.00;;;9.30
7882;BMP180;3986;41.884;23.466;2024-01-07T11:46:05;90103.00;;;9.20
7882;BMP180;3986;41.884;23.466;2024-01-07T11:48:33;90181.00;;;9.20
7882;BMP180;3986;41.884;23.466;2024-01-07T11:50:59;90182.00;;;9.10
7882;BMP180;3986;41.884;23.466;2024-01-07T11:53:28;90181.00;;;9.10
7882;BMP180;3986;41.884;23.466;2024-01-07T11:55:54;90171.00;;;9.10
7882;BMP180;3986;41.884;23.466;2024-01-07T11:58:21;90183.00;;;9.20
7882;BMP180;3986;41.884;23.466;2024-01-07T12:00:48;90171.00;;;9.00
7882;BMP180;3986;41.884;23.466;2024-01-07T12:03:17;90176.00;;;9.00
7882;BMP180;3986;41.884;23.466;2024-01-07T12:05:44;90184.00;;;9.20
7882;BMP180;3986;41.884;23.466;2024-01-07T12:08:13;90174.00;;;9.30
7882;BMP180;3986;41.884;23.466;2024-01-07T12:10:41;90171.00;;;9.30
7882;BMP180;3986;41.884;23.466;2024-01-07T12:13:08;90170.00;;;9.20
7882;BMP180;3986;41.884;23.466;2024-01-07T12:15:37;90165.00;;;9.30
7882;BMP180;3986;41.884;23.466;2024-01-07T12:18:04;90165.00;;;9.20
7882;BMP180;3986;41.884;23.466;2024-01-07T12:20:32;90059.00;;;9.10
7882;BMP180;3986;41.884;23.466;2024-01-07T12:23:05;90161.00;;;9.30
7882;BMP180;3986;41.884;23.466;2024-01-07T12:25:32;90155.00;;;9.20
7882;BMP180;3986;41.884;23.466;2024-01-07T12:27:59;90158.00;;;9.20
7882;BMP180;3986;41.884;23.466;2024-01-07T12:30:26;90159.00;;;9.30
7882;BMP180;3986;41.884;23.466;2024-01-07T12:32:53;90165.00;;;9.40
7882;BMP180;3986;41.884;23.466;2024-01-07T12:35:20;90166.00;;;9.60
7882;BMP180;3986;41.884;23.466;2024-01-07T12:37:49;90167.00;;;9.50
7882;BMP180;3986;41.884;23.466;2024-01-07T12:40:15;90167.00;;;9.50
7882;BMP180;3986;41.884;23.466;2024-01-07T12:42:42;90162.00;;;9.50
7882;BMP180;3986;41.884;23.466;2024-01-07T12:45:12;90161.00;;;9.70
7882;BMP180;3986;41.884;23.466;2024-01-07T12:47:40;90158.00;;;9.50
7882;BMP180;3986;41.884;23.466;2024-01-07T12:50:11;90152.00;;;9.40
7882;BMP180;3986;41.884;23.466;2024-01-07T12:52:38;90146.00;;;9.80
7882;BMP180;3986;41.884;23.466;2024-01-07T12:55:09;90165.00;;;9.70
7882;BMP180;3986;41.884;23.466;2024-01-07T12:57:35;90164.00;;;9.30
7882;BMP180;3986;41.884;23.466;2024-01-07T13:00:03;90158.00;;;9.50
7882;BMP180;3986;41.884;23.466;2024-01-07T13:02:32;90167.00;;;9.40
7882;BMP180;3986;41.884;23.466;2024-01-07T13:04:59;90160.00;;;9.20
7882;BMP180;3986;41.884;23.466;2024-01-07T13:07:26;90165.00;;;9.20
7882;BMP180;3986;41.884;23.466;2024-01-07T13:09:53;90166.00;;;9.30
7882;BMP180;3986;41.884;23.466;2024-01-07T13:12:21;90157.00;;;9.30
7882;BMP180;3986;41.884;23.466;2024-01-07T13:14:48;90161.00;;;9.20
7882;BMP180;3986;41.884;23.466;2024-01-07T13:17:15;90158.00;;;8.90
7882;BMP180;3986;41.884;23.466;2024-01-07T13:19:42;90156.00;;;9.30
7882;BMP180;3986;41.884;23.466;2024-01-07T13:22:08;90150.00;;;9.40
7882;BMP180;3986;41.884;23.466;2024-01-07T13:24:36;90152.00;;;9.20
7882;BMP180;3986;41.884;23.466;2024-01-07T13:27:03;90160.00;;;9.20
7882;BMP180;3986;41.884;23.466;2024-01-07T13:29:32;90165.00;;;9.20
7882;BMP180;3986;41.884;23.466;2024-01-07T13:31:59;90159.00;;;9.60
7882;BMP180;3986;41.884;23.466;2024-01-07T13:34:26;90153.00;;;9.30
7882;BMP180;3986;41.884;23.466;2024-01-07T13:36:53;90147.00;;;9.10
7882;BMP180;3986;41.884;23.466;2024-01-07T13:39:21;90163.00;;;9.30
7882;BMP180;3986;41.884;23.466;2024-01-07T13:41:48;90128.00;;;9.10
7882;BMP180;3986;41.884;23.466;2024-01-07T13:44:15;90163.00;;;9.20
7882;BMP180;3986;41.884;23.466;2024-01-07T13:46:46;90165.00;;;9.00
7882;BMP180;3986;41.884;23.466;2024-01-07T13:49:13;90162.00;;;8.80
7882;BMP180;3986;41.884;23.466;2024-01-07T13:51:40;90163.00;;;9.00
7882;BMP180;3986;41.884;23.466;2024-01-07T13:54:12;90161.00;;;9.00
7882;BMP180;3986;41.884;23.466;2024-01-07T13:56:40;90176.00;;;9.20
7882;BMP180;3986;41.884;23.466;2024-01-07T13:59:08;90165.00;;;9.30
7882;BMP180;3986;41.884;23.466;2024-01-07T14:01:35;90164.00;;;9.30
7882;BMP180;3986;41.884;23.466;2024-01-07T14:04:03;90160.00;;;9.10
7882;BMP180;3986;41.884;23.466;2024-01-07T14:06:30;90167.00;;;9.10
7882;BMP180;3986;41.884;23.466;2024-01-07T14:08:57;90164.00;;;8.90
7882;BMP180;3986;41.884;23.466;2024-01-07T14:11:24;90162.00;;;8.90
7882;BMP180;3986;41.884;23.466;2024-01-07T14:13:52;90166.00;;;8.80
7882;BMP180;3986;41.884;23.466;2024-01-07T14:16:19;90178.00;;;8.90
7882;BMP180;3986;41.884;23.466;2024-01-07T14:18:45;90178.00;;;9.10
7882;BMP180;3986;41.884;23.466;2024-01-07T14:21:13;90168.00;;;9.20
7882;BMP180;3986;41.884;23.466;2024-01-07T14:23:40;90168.00;;;9.10
7882;BMP180;3986;41.884;23.466;2024-01-07T14:26:07;90169.00;;;8.50
7882;BMP180;3986;41.884;23.466;2024-01-07T14:28:34;90170.00;;;8.20
7882;BMP180;3986;41.884;23.466;2024-01-07T14:31:01;90179.00;;;8.10
7882;BMP180;3986;41.884;23.466;2024-01-07T14:33:29;90171.00;;;8.20
7882;BMP180;3986;41.884;23.466;2024-01-07T14:35:55;90172.00;;;8.20